createdAt,value
2022-09-16T00:01:56.472Z,98705.31
2022-09-16T00:04:25.371Z,98702.47
2022-09-16T00:06:53.968Z,98708.03
2022-09-16T00:09:23.925Z,98709.72
2022-09-16T00:11:52.967Z,98708.69
2022-09-16T00:14:21.542Z,98714.97
2022-09-16T00:16:50.282Z,98718.06
2022-09-16T00:19:19.130Z,98730.78
2022-09-16T00:21:52.968Z,98735.69
2022-09-16T00:24:23.177Z,98711.28
2022-09-16T00:26:51.776Z,98700.75
2022-09-16T00:29:20.340Z,98708.81
2022-09-16T00:31:49.163Z,98705.34
2022-09-16T00:34:17.799Z,98713.66
2022-09-16T00:36:46.395Z,98721.03
2022-09-16T00:39:15.258Z,98726.25
2022-09-16T00:41:45.683Z,98729.88
2022-09-16T00:44:47.826Z,98739.25
2022-09-16T00:47:20.167Z,98740.78
2022-09-16T00:49:49.733Z,98747.56
2022-09-16T00:52:19.735Z,98761.97
2022-09-16T00:54:48.595Z,98762.44
2022-09-16T00:57:18.616Z,98748.56
2022-09-16T00:59:49.952Z,98742.66
2022-09-16T01:02:20.745Z,98739.16
2022-09-16T01:04:52.849Z,98729.53
2022-09-16T01:07:28.845Z,98727.75
2022-09-16T01:09:57.798Z,98724.81
2022-09-16T01:12:29.143Z,98728.50
2022-09-16T01:14:58.529Z,98733.00
2022-09-16T01:17:41.898Z,98747.31
2022-09-16T01:20:34.282Z,98745.00
2022-09-16T01:23:18.549Z,98754.22
2022-09-16T01:25:58.975Z,98761.31
2022-09-16T01:28:41.134Z,98745.88
2022-09-16T01:31:15.849Z,98751.66
2022-09-16T01:33:52.438Z,98757.41
2022-09-16T01:36:32.562Z,98748.84
2022-09-16T01:39:09.151Z,98746.84
2022-09-16T01:41:47.771Z,98742.81
2022-09-16T01:44:22.704Z,98746.03
2022-09-16T01:46:59.554Z,98747.31
2022-09-16T01:49:38.224Z,98745.19
2022-09-16T01:52:12.843Z,98747.62
2022-09-16T01:54:44.413Z,98752.28
2022-09-16T01:57:16.486Z,98749.41
2022-09-16T01:59:48.748Z,98748.91
2022-09-16T02:02:22.068Z,98749.63
2022-09-16T02:04:52.885Z,98745.06
2022-09-16T02:07:23.986Z,98742.56
2022-09-16T02:09:57.913Z,98754.16
2022-09-16T02:12:32.462Z,98749.22
2022-09-16T02:15:04.826Z,98755.19
2022-09-16T02:17:38.472Z,98758.50
2022-09-16T02:20:11.166Z,98757.16
2022-09-16T02:22:43.432Z,98767.97
2022-09-16T02:25:14.502Z,98760.72
2022-09-16T02:27:44.557Z,98770.75
2022-09-16T02:30:17.647Z,98773.37
2022-09-16T02:32:49.663Z,98777.34
2022-09-16T02:35:20.159Z,98787.66
2022-09-16T02:37:52.140Z,98780.38
2022-09-16T02:40:24.986Z,98777.00
2022-09-16T02:42:54.076Z,98784.94
2022-09-16T02:45:26.494Z,98785.53
2022-09-16T02:48:03.279Z,98792.78
2022-09-16T02:50:39.930Z,98791.50
2022-09-16T02:53:14.415Z,98781.03
2022-09-16T02:55:50.093Z,98792.34
2022-09-16T02:58:18.704Z,98792.81
2022-09-16T03:00:50.360Z,98794.53
2022-09-16T03:03:20.414Z,98789.34
2022-09-16T03:06:17.746Z,98787.50
2022-09-16T03:08:47.055Z,98790.88
2022-09-16T03:11:30.134Z,98801.31
2022-09-16T03:14:09.072Z,98793.44
2022-09-16T03:16:46.222Z,98796.84
2022-09-16T03:19:22.923Z,98797.31
2022-09-16T03:21:57.064Z,98807.97
2022-09-16T03:24:31.045Z,98805.69
2022-09-16T03:27:03.815Z,98805.19
2022-09-16T03:29:36.347Z,98800.44
2022-09-16T03:32:11.558Z,98796.13
2022-09-16T03:34:44.959Z,98800.03
2022-09-16T03:37:16.898Z,98797.72
2022-09-16T03:39:50.200Z,98797.53
2022-09-16T03:42:19.044Z,98806.56
2022-09-16T03:44:47.708Z,98812.31
2022-09-16T03:47:16.872Z,98819.06
2022-09-16T03:49:47.071Z,98816.19
2022-09-16T03:52:17.371Z,98817.59
2022-09-16T03:54:46.269Z,98815.84
2022-09-16T03:57:14.874Z,98801.91
2022-09-16T03:59:43.468Z,98808.78
2022-09-16T04:02:12.326Z,98808.66
2022-09-16T04:04:41.231Z,98806.97
2022-09-16T04:07:11.118Z,98819.16
2022-09-16T04:09:39.705Z,98815.53
2022-09-16T04:12:08.918Z,98818.03
2022-09-16T04:14:37.548Z,98807.66
2022-09-16T04:17:06.329Z,98803.31
2022-09-16T04:19:35.448Z,98803.06
2022-09-16T04:22:04.239Z,98809.12
2022-09-16T04:24:34.179Z,98809.66
2022-09-16T04:27:03.126Z,98821.97
2022-09-16T04:29:34.159Z,98825.13
2022-09-16T04:32:03.415Z,98826.09
2022-09-16T04:34:32.353Z,98821.28
2022-09-16T04:37:00.990Z,98825.44
2022-09-16T04:39:29.905Z,98822.03
2022-09-16T04:42:01.104Z,98820.97
2022-09-16T04:44:30.446Z,98826.72
2022-09-16T04:46:59.102Z,98826.97
2022-09-16T04:49:27.765Z,98818.59
2022-09-16T04:51:56.729Z,98817.28
2022-09-16T04:54:25.424Z,98818.72
2022-09-16T04:56:54.033Z,98818.72
2022-09-16T04:59:24.353Z,98828.81
2022-09-16T05:01:53.145Z,98831.53
2022-09-16T05:04:21.879Z,98831.94
2022-09-16T05:07:09.249Z,98813.75
2022-09-16T05:09:37.901Z,98811.63
2022-09-16T05:12:08.453Z,98821.56
2022-09-16T05:14:38.412Z,98829.22
2022-09-16T05:17:07.472Z,98837.94
2022-09-16T05:19:38.424Z,98846.94
2022-09-16T05:22:07.394Z,98836.59
2022-09-16T05:24:37.003Z,98840.50
2022-09-16T05:27:05.610Z,98848.50
2022-09-16T05:29:34.527Z,98847.03
2022-09-16T05:32:04.675Z,98851.56
2022-09-16T05:34:33.316Z,98850.09
2022-09-16T05:37:02.265Z,98852.25
2022-09-16T05:39:30.960Z,98853.88
2022-09-16T05:42:01.072Z,98855.59
2022-09-16T05:44:30.354Z,98849.34
2022-09-16T05:46:59.047Z,98856.09
2022-09-16T05:49:29.036Z,98857.16
2022-09-16T05:51:57.921Z,98859.84
2022-09-16T05:54:26.550Z,98838.12
2022-09-16T05:56:55.116Z,98840.44
2022-09-16T05:59:24.620Z,98840.31
2022-09-16T06:01:53.428Z,98837.03
2022-09-16T06:04:26.592Z,98854.84
2022-09-16T06:06:56.555Z,98851.97
2022-09-16T06:09:26.288Z,98857.00
2022-09-16T06:12:01.435Z,98853.88
2022-09-16T06:14:31.619Z,98856.06
2022-09-16T06:17:00.522Z,98858.44
2022-09-16T06:19:47.481Z,98848.06
2022-09-16T06:22:17.692Z,98852.38
2022-09-16T06:24:46.318Z,98861.06
2022-09-16T06:27:14.928Z,98854.84
2022-09-16T06:29:43.814Z,98844.66
2022-09-16T06:32:12.396Z,98845.88
2022-09-16T06:34:41.003Z,98847.19
2022-09-16T06:37:12.716Z,98842.56
2022-09-16T06:39:43.568Z,98836.28
2022-09-16T06:42:12.293Z,98852.06
2022-09-16T06:44:41.643Z,98852.84
2022-09-16T06:47:10.397Z,98852.28
2022-09-16T06:49:39.304Z,98852.59
2022-09-16T06:52:09.512Z,98857.84
2022-09-16T06:54:38.414Z,98858.00
2022-09-16T06:57:12.353Z,98857.47
2022-09-16T06:59:41.486Z,98850.97
2022-09-16T07:02:14.265Z,98861.12
2022-09-16T07:04:43.178Z,98863.50
2022-09-16T07:07:12.201Z,98867.63
2022-09-16T07:09:41.233Z,98868.41
2022-09-16T07:12:11.650Z,98866.66
2022-09-16T07:14:41.484Z,98875.97
2022-09-16T07:17:10.422Z,98885.63
2022-09-16T07:19:39.101Z,98872.06
2022-09-16T07:22:07.941Z,98884.59
2022-09-16T07:24:36.560Z,98880.75
2022-09-16T07:27:05.541Z,98883.50
2022-09-16T07:29:35.767Z,98887.06
2022-09-16T07:32:04.612Z,98886.31
2022-09-16T07:34:33.205Z,98888.53
2022-09-16T07:37:02.089Z,98890.22
2022-09-16T07:39:30.695Z,98888.37
2022-09-16T07:42:03.878Z,98889.69
2022-09-16T07:44:36.181Z,98896.06
2022-09-16T07:47:04.918Z,98908.81
2022-09-16T07:49:33.848Z,98906.06
2022-09-16T07:52:02.884Z,98904.16
2022-09-16T07:54:32.016Z,98904.88
2022-09-16T07:57:01.312Z,98907.12
2022-09-16T07:59:30.189Z,98901.00
2022-09-16T08:02:00.358Z,98907.72
2022-09-16T08:04:29.302Z,98904.03
2022-09-16T08:06:57.896Z,98915.19
2022-09-16T08:09:38.921Z,98907.47
2022-09-16T08:12:11.113Z,98910.03
2022-09-16T08:14:39.857Z,98919.56
2022-09-16T08:17:09.863Z,98920.47
2022-09-16T08:19:40.266Z,98918.28
2022-09-16T08:22:09.075Z,98909.81
2022-09-16T08:24:38.174Z,98914.00
2022-09-16T08:27:06.968Z,98907.22
2022-09-16T08:29:35.735Z,98902.63
2022-09-16T08:32:04.707Z,98901.88
2022-09-16T08:34:34.795Z,98912.69
2022-09-16T08:37:06.170Z,98912.31
2022-09-16T08:39:35.084Z,98900.00
2022-09-16T08:42:13.564Z,98914.94
2022-09-16T08:44:50.642Z,98911.56
2022-09-16T08:47:28.589Z,98908.28
2022-09-16T08:50:01.295Z,98910.37
2022-09-16T08:52:32.724Z,98896.16
2022-09-16T08:55:04.971Z,98903.28
2022-09-16T08:57:36.326Z,98920.66
2022-09-16T09:00:09.624Z,98924.84
2022-09-16T09:05:19.463Z,98927.19
2022-09-16T09:08:02.421Z,98922.00
2022-09-16T09:10:39.433Z,98917.69
2022-09-16T09:13:16.710Z,98922.75
2022-09-16T09:15:51.704Z,98919.56
2022-09-16T09:18:29.600Z,98905.91
2022-09-16T09:21:10.293Z,98911.44
2022-09-16T09:23:53.067Z,98904.03
2022-09-16T09:26:23.633Z,98898.69
2022-09-16T09:29:27.910Z,98901.06
2022-09-16T09:32:01.239Z,98905.84
2022-09-16T09:34:41.615Z,98902.06
2022-09-16T09:37:24.823Z,98911.72
2022-09-16T09:40:02.081Z,98913.44
2022-09-16T09:42:34.571Z,98902.59
2022-09-16T09:45:06.276Z,98910.69
2022-09-16T09:47:38.320Z,98924.41
2022-09-16T09:50:17.484Z,98915.12
2022-09-16T09:52:55.643Z,98908.06
2022-09-16T09:55:25.890Z,98900.06
2022-09-16T09:58:06.376Z,98903.16
2022-09-16T10:00:35.106Z,98897.50
2022-09-16T10:03:08.020Z,98891.38
2022-09-16T10:05:36.693Z,98883.53
2022-09-16T10:08:16.450Z,98886.31
2022-09-16T10:10:50.427Z,98890.44
2022-09-16T10:13:20.045Z,98893.19
2022-09-16T10:15:53.343Z,98897.97
2022-09-16T10:18:30.466Z,98899.62
2022-09-16T10:21:03.873Z,98900.88
2022-09-16T10:23:35.439Z,98897.13
2022-09-16T10:26:18.233Z,98893.22
2022-09-16T10:29:01.765Z,98890.53
2022-09-16T10:31:35.642Z,98893.09
2022-09-16T10:34:06.982Z,98890.66
2022-09-16T10:36:36.127Z,98889.94
2022-09-16T10:39:06.506Z,98886.03
2022-09-16T10:41:36.709Z,98885.31
2022-09-16T10:44:16.600Z,98890.50
2022-09-16T10:46:54.178Z,98886.84
2022-09-16T10:49:28.878Z,98889.63
2022-09-16T10:52:08.638Z,98888.56
2022-09-16T10:54:38.967Z,98898.66
2022-09-16T10:57:22.784Z,98903.59
2022-09-16T11:00:06.559Z,98902.66
2022-09-16T11:03:01.182Z,98903.84
2022-09-16T11:05:34.300Z,98914.09
2022-09-16T11:08:15.675Z,98904.59
2022-09-16T11:10:50.414Z,98907.88
2022-09-16T11:13:33.859Z,98896.50
2022-09-16T11:16:38.385Z,98895.44
2022-09-16T11:19:12.045Z,98896.28
2022-09-16T11:21:47.607Z,98896.16
2022-09-16T11:24:44.871Z,98896.16
2022-09-16T11:27:22.780Z,98888.56
2022-09-16T11:29:59.340Z,98876.62
2022-09-16T11:32:35.442Z,98876.22
2022-09-16T11:35:20.905Z,98876.09
2022-09-16T11:38:00.903Z,98876.69
2022-09-16T11:40:35.201Z,98874.06
2022-09-16T11:43:22.261Z,98871.28
2022-09-16T11:45:56.403Z,98870.78
2022-09-16T11:48:38.134Z,98865.09
2022-09-16T11:51:12.843Z,98863.22
2022-09-16T11:54:01.892Z,98856.63
2022-09-16T11:56:37.710Z,98865.44
2022-09-16T11:59:14.291Z,98848.66
2022-09-16T12:01:45.400Z,98861.88
2022-09-16T12:04:19.875Z,98861.25
2022-09-16T12:06:54.750Z,98858.84
2022-09-16T12:09:29.363Z,98846.28
2022-09-16T12:12:04.857Z,98842.31
2022-09-16T12:14:38.841Z,98840.25
2022-09-16T12:17:12.579Z,98849.75
2022-09-16T12:19:45.034Z,98851.69
2022-09-16T12:22:19.002Z,98852.41
2022-09-16T12:24:50.846Z,98843.78
2022-09-16T12:27:29.126Z,98829.69
2022-09-16T12:30:03.216Z,98835.22
2022-09-16T12:32:37.725Z,98847.66
2022-09-16T12:35:14.097Z,98847.94
2022-09-16T12:37:47.912Z,98839.50
2022-09-16T12:40:19.626Z,98838.50
2022-09-16T12:43:28.958Z,98828.19
2022-09-16T12:46:12.627Z,98832.63
2022-09-16T12:49:04.433Z,98825.63
2022-09-16T12:51:59.917Z,98823.81
2022-09-16T12:55:11.349Z,98821.66
2022-09-16T12:57:50.760Z,98812.25
2022-09-16T13:00:22.108Z,98807.47
2022-09-16T13:02:54.236Z,98806.59
2022-09-16T13:05:28.219Z,98805.75
2022-09-16T13:08:04.376Z,98805.81
2022-09-16T13:10:54.695Z,98800.75
2022-09-16T13:13:31.280Z,98809.19
2022-09-16T13:16:02.508Z,98804.75
2022-09-16T13:18:44.760Z,98797.84
2022-09-16T13:21:22.877Z,98806.16
2022-09-16T13:23:58.542Z,98794.13
2022-09-16T13:26:27.207Z,98812.06
2022-09-16T13:28:58.988Z,98808.75
2022-09-16T13:31:34.129Z,98803.41
2022-09-16T13:34:15.822Z,98801.12
2022-09-16T13:36:44.262Z,98791.75
2022-09-16T13:39:15.043Z,98798.59
2022-09-16T13:41:45.443Z,98791.13
2022-09-16T13:44:43.053Z,98790.88
2022-09-16T13:47:31.048Z,98789.72
2022-09-16T13:50:06.344Z,98787.16
2022-09-16T13:52:36.403Z,98783.56
2022-09-16T13:55:11.086Z,98769.34
2022-09-16T13:58:00.001Z,98773.50
2022-09-16T14:00:35.381Z,98768.69
2022-09-16T14:03:30.019Z,98764.88
2022-09-16T14:06:20.390Z,98762.66
2022-09-16T14:08:57.906Z,98764.50
2022-09-16T14:11:34.775Z,98766.41
2022-09-16T14:14:06.769Z,98753.06
2022-09-16T14:16:36.430Z,98756.81
2022-09-16T14:19:07.849Z,98760.63
2022-09-16T14:21:38.907Z,98752.09
2022-09-16T14:24:17.945Z,98751.81
2022-09-16T14:26:53.581Z,98749.75
2022-09-16T14:29:23.793Z,98759.06
2022-09-16T14:31:54.146Z,98755.88
2022-09-16T14:34:27.353Z,98760.31
2022-09-16T14:36:58.061Z,98768.78
2022-09-16T14:39:28.101Z,98767.56
2022-09-16T14:41:59.105Z,98763.38
2022-09-16T14:44:35.190Z,98757.06
2022-09-16T14:47:09.456Z,98749.38
2022-09-16T14:49:41.933Z,98742.19
2022-09-16T14:52:20.277Z,98748.75
2022-09-16T14:54:50.654Z,98740.97
2022-09-16T14:57:22.793Z,98739.91
2022-09-16T14:59:55.563Z,98741.56
2022-09-16T15:02:26.577Z,98741.34
2022-09-16T15:04:58.977Z,98727.47
2022-09-16T15:07:30.957Z,98736.75
2022-09-16T15:10:02.871Z,98729.81
2022-09-16T15:12:36.809Z,98735.72
2022-09-16T15:15:06.964Z,98733.28
2022-09-16T15:17:35.620Z,98741.53
2022-09-16T15:20:04.398Z,98737.00
2022-09-16T15:22:34.686Z,98749.06
2022-09-16T15:25:04.045Z,98743.16
2022-09-16T15:27:32.965Z,98745.19
2022-09-16T15:30:05.622Z,98743.78
2022-09-16T15:32:45.081Z,98752.38
2022-09-16T15:35:25.171Z,98749.94
2022-09-16T15:37:56.092Z,98752.47
2022-09-16T15:40:35.801Z,98753.84
2022-09-16T15:43:16.876Z,98755.31
2022-09-16T15:45:47.458Z,98762.69
2022-09-16T15:48:18.742Z,98767.75
2022-09-16T15:50:50.013Z,98767.50
2022-09-16T15:53:28.040Z,98770.75
2022-09-16T15:56:00.111Z,98764.06
2022-09-16T15:58:39.567Z,98758.19
2022-09-16T16:01:13.534Z,98752.19
2022-09-16T16:03:57.133Z,98735.25
2022-09-16T16:06:47.779Z,98738.72
2022-09-16T16:09:40.044Z,98740.47
2022-09-16T16:12:10.776Z,98735.94
2022-09-16T16:14:40.993Z,98736.78
2022-09-16T16:17:13.628Z,98733.00
2022-09-16T16:19:43.890Z,98731.66
2022-09-16T16:22:12.835Z,98722.09
2022-09-16T16:24:43.168Z,98727.75
2022-09-16T16:27:12.121Z,98725.03
2022-09-16T16:29:40.768Z,98727.00
2022-09-16T16:32:10.781Z,98724.94
2022-09-16T16:34:41.248Z,98724.59
2022-09-16T16:37:28.068Z,98721.63
2022-09-16T16:40:02.649Z,98715.97
2022-09-16T16:42:31.637Z,98703.03
2022-09-16T16:45:00.260Z,98705.41
2022-09-16T16:47:30.166Z,98712.37
2022-09-16T16:49:59.819Z,98722.16
2022-09-16T16:52:28.724Z,98716.47
2022-09-16T16:54:57.644Z,98705.84
2022-09-16T16:57:27.794Z,98707.00
2022-09-16T16:59:56.503Z,98712.59
2022-09-16T17:02:26.083Z,98708.06
2022-09-16T17:04:54.783Z,98710.22
2022-09-16T17:07:27.721Z,98705.94
2022-09-16T17:09:58.642Z,98701.19
2022-09-16T17:12:28.751Z,98702.81
2022-09-16T17:14:57.658Z,98704.06
2022-09-16T17:17:31.208Z,98699.75
2022-09-16T17:20:00.734Z,98709.25
2022-09-16T17:22:29.349Z,98698.03
2022-09-16T17:24:57.989Z,98693.19
2022-09-16T17:27:29.718Z,98690.97
2022-09-16T17:30:01.071Z,98689.91
2022-09-16T17:32:30.002Z,98701.44
2022-09-16T17:34:58.636Z,98689.63
2022-09-16T17:37:27.255Z,98688.31
2022-09-16T17:39:56.807Z,98688.19
2022-09-16T17:42:25.580Z,98695.91
2022-09-16T17:44:55.578Z,98705.09
2022-09-16T17:47:24.570Z,98711.31
2022-09-16T17:49:53.737Z,98709.28
2022-09-16T17:52:22.344Z,98713.69
2022-09-16T17:54:51.294Z,98712.03
2022-09-16T17:57:20.212Z,98716.84
2022-09-16T17:59:48.825Z,98709.28
2022-09-16T18:02:21.772Z,98708.13
2022-09-16T18:04:50.872Z,98710.34
2022-09-16T18:07:19.697Z,98701.09
2022-09-16T18:09:48.605Z,98701.66
2022-09-16T18:12:17.606Z,98700.88
2022-09-16T18:14:46.238Z,98695.34
2022-09-16T18:17:14.928Z,98701.34
2022-09-16T18:19:45.240Z,98711.09
2022-09-16T18:22:13.824Z,98709.44
2022-09-16T18:24:42.848Z,98721.28
2022-09-16T18:27:12.093Z,98727.91
2022-09-16T18:29:41.351Z,98730.47
2022-09-16T18:32:10.019Z,98733.94
2022-09-16T18:34:39.181Z,98732.81
2022-09-16T18:37:09.489Z,98731.13
2022-09-16T18:39:38.188Z,98728.03
2022-09-16T18:42:07.565Z,98718.25
2022-09-16T18:44:36.267Z,98717.91
2022-09-16T18:47:04.940Z,98715.00
2022-09-16T18:49:33.829Z,98707.19
2022-09-16T18:52:02.960Z,98709.25
2022-09-16T18:54:33.254Z,98698.75
2022-09-16T18:57:02.587Z,98695.84
2022-09-16T18:59:32.293Z,98703.66
2022-09-16T19:02:02.827Z,98713.87
2022-09-16T19:04:33.553Z,98704.50
2022-09-16T19:07:07.647Z,98703.09
2022-09-16T19:09:39.816Z,98694.44
2022-09-16T19:12:10.897Z,98690.31
2022-09-16T19:14:40.999Z,98678.03
2022-09-16T19:17:10.241Z,98680.56
2022-09-16T19:19:39.225Z,98694.81
2022-09-16T19:22:07.878Z,98721.28
2022-09-16T19:24:38.425Z,98724.94
2022-09-16T19:27:07.341Z,98723.31
2022-09-16T19:29:35.939Z,98720.72
2022-09-16T19:32:04.679Z,98717.53
2022-09-16T19:34:33.655Z,98718.84
2022-09-16T19:37:02.337Z,98709.66
2022-09-16T19:39:31.783Z,98705.16
2022-09-16T19:42:03.667Z,98704.28
2022-09-16T19:44:32.493Z,98706.28
2022-09-16T19:47:02.119Z,98707.38
2022-09-16T19:49:30.846Z,98704.75
2022-09-16T19:51:59.525Z,98702.88
2022-09-16T19:54:28.502Z,98700.72
2022-09-16T19:56:57.127Z,98704.87
2022-09-16T19:59:27.138Z,98707.19
2022-09-16T20:01:57.297Z,98706.47
2022-09-16T20:04:26.483Z,98707.66
2022-09-16T20:06:55.103Z,98707.63
2022-09-16T20:09:23.791Z,98716.06
2022-09-16T20:11:52.727Z,98713.84
2022-09-16T20:14:22.298Z,98718.25
2022-09-16T20:16:52.622Z,98710.72
2022-09-16T20:19:22.502Z,98713.47
2022-09-16T20:21:51.213Z,98711.59
2022-09-16T20:24:21.597Z,98709.16
2022-09-16T20:26:51.431Z,98702.31
2022-09-16T20:29:20.858Z,98707.25
2022-09-16T20:31:50.728Z,98710.94
2022-09-16T20:34:23.019Z,98715.72
2022-09-16T20:36:51.996Z,98716.56
2022-09-16T20:39:23.913Z,98713.09
2022-09-16T20:41:52.878Z,98708.53
2022-09-16T20:44:21.801Z,98715.25
2022-09-16T20:46:50.481Z,98725.31
2022-09-16T20:49:23.083Z,98734.38
2022-09-16T20:51:52.480Z,98749.72
2022-09-16T20:54:21.093Z,98748.81
2022-09-16T20:56:49.967Z,98752.66
2022-09-16T20:59:20.173Z,98753.06
2022-09-16T21:01:50.053Z,98755.81
2022-09-16T21:04:21.567Z,98749.22
2022-09-16T21:06:49.982Z,98745.44
2022-09-16T21:09:19.620Z,98744.31
2022-09-16T21:11:50.168Z,98748.06
2022-09-16T21:14:21.596Z,98741.97
2022-09-16T21:16:51.635Z,98740.34
2022-09-16T21:19:21.997Z,98744.31
2022-09-16T21:21:51.098Z,98743.28
2022-09-16T21:24:20.019Z,98756.28
2022-09-16T21:26:52.277Z,98759.13
2022-09-16T21:29:21.516Z,98765.13
2022-09-16T21:31:50.524Z,98772.91
2022-09-16T21:34:21.936Z,98776.94
2022-09-16T21:36:51.472Z,98776.94
2022-09-16T21:39:21.873Z,98774.34
2022-09-16T21:41:50.482Z,98767.84
2022-09-16T21:44:19.964Z,98764.59
2022-09-16T21:46:49.810Z,98762.19
2022-09-16T21:49:24.400Z,98758.87
2022-09-16T21:51:54.385Z,98775.19
2022-09-16T21:54:23.765Z,98768.13
2022-09-16T21:56:52.794Z,98760.44
2022-09-16T21:59:21.942Z,98779.28
2022-09-16T22:01:51.619Z,98778.06
2022-09-16T22:04:23.214Z,98775.34
2022-09-16T22:06:52.743Z,98777.28
2022-09-16T22:09:21.602Z,98783.66
2022-09-16T22:11:50.667Z,98789.25
2022-09-16T22:14:19.704Z,98798.09
2022-09-16T22:16:50.538Z,98799.03
2022-09-16T22:19:21.487Z,98804.50
2022-09-16T22:21:51.828Z,98810.91
2022-09-16T22:24:21.632Z,98803.91
2022-09-16T22:26:52.093Z,98818.84
2022-09-16T22:29:20.812Z,98829.31
2022-09-16T22:31:49.584Z,98826.97
2022-09-16T22:34:18.713Z,98830.06
2022-09-16T22:36:48.693Z,98823.62
2022-09-16T22:39:18.337Z,98827.28
2022-09-16T22:41:47.361Z,98827.56
2022-09-16T22:44:16.141Z,98828.31
2022-09-16T22:46:46.397Z,98821.50
2022-09-16T22:49:16.069Z,98828.66
2022-09-16T22:51:44.754Z,98841.16
2022-09-16T22:54:15.919Z,98843.13
2022-09-16T22:56:45.188Z,98828.06
2022-09-16T22:59:18.214Z,98832.12
2022-09-16T23:01:47.608Z,98834.50
2022-09-16T23:04:16.557Z,98819.47
2022-09-16T23:06:47.855Z,98826.59
2022-09-16T23:09:17.864Z,98827.94
2022-09-16T23:11:46.559Z,98830.13
2022-09-16T23:14:24.702Z,98827.56
2022-09-16T23:16:54.177Z,98827.69
2022-09-16T23:19:23.188Z,98815.38
2022-09-16T23:21:51.912Z,98814.97
2022-09-16T23:24:22.857Z,98808.22
2022-09-16T23:26:51.607Z,98811.16
2022-09-16T23:29:20.094Z,98800.97
2022-09-16T23:31:48.805Z,98787.59
2022-09-16T23:34:19.605Z,98790.88
2022-09-16T23:36:48.858Z,98782.28
2022-09-16T23:39:18.424Z,98773.81
2022-09-16T23:41:49.867Z,98767.06
2022-09-16T23:44:19.195Z,98763.56
2022-09-16T23:46:47.924Z,98763.84
2022-09-16T23:49:20.283Z,98754.34
2022-09-16T23:51:49.195Z,98760.28
2022-09-16T23:54:17.872Z,98749.34
2022-09-16T23:56:47.829Z,98748.50
2022-09-16T23:59:16.712Z,98750.06
